createdAt,value
2024-03-31T00:02:09.156Z,100371.72
2024-03-31T00:04:37.270Z,100367.80
2024-03-31T00:07:06.218Z,100367.39
2024-03-31T00:09:34.400Z,100361.86
2024-03-31T00:12:02.344Z,100363.86
2024-03-31T00:14:30.122Z,100361.86
2024-03-31T00:16:58.226Z,100359.27
2024-03-31T00:19:26.290Z,100354.15
2024-03-31T00:21:54.223Z,100351.62
2024-03-31T00:24:22.342Z,100343.73
2024-03-31T00:26:50.306Z,100347.59
2024-03-31T00:29:18.313Z,100345.70
2024-03-31T00:31:46.798Z,100351.54
2024-03-31T00:34:15.178Z,100351.14
2024-03-31T00:36:46.002Z,100357.32
2024-03-31T00:39:13.947Z,100355.11
2024-03-31T00:41:42.728Z,100349.91
2024-03-31T00:44:10.842Z,100345.80
2024-03-31T00:46:38.763Z,100343.80
2024-03-31T00:49:06.779Z,100349.84
2024-03-31T00:51:34.881Z,100347.75
2024-03-31T00:54:02.983Z,100349.63
2024-03-31T00:56:30.909Z,100348.71
2024-03-31T00:58:58.815Z,100346.15
2024-03-31T01:01:26.780Z,100345.79
2024-03-31T01:03:55.013Z,100341.79
2024-03-31T01:06:25.834Z,100341.33
2024-03-31T01:08:55.316Z,100340.63
2024-03-31T01:11:23.515Z,100343.48
2024-03-31T01:13:52.629Z,100350.92
2024-03-31T01:16:20.560Z,100353.33
2024-03-31T01:18:48.586Z,100349.70
2024-03-31T01:21:16.675Z,100353.70
2024-03-31T01:23:55.190Z,100353.70
2024-03-31T01:26:23.240Z,100356.94
2024-03-31T01:28:51.341Z,100358.41
2024-03-31T01:31:19.667Z,100357.83
2024-03-31T01:33:48.091Z,100361.30
2024-03-31T01:36:15.964Z,100359.87
2024-03-31T01:38:54.958Z,100363.02
2024-03-31T01:41:27.660Z,100367.51
2024-03-31T01:43:55.545Z,100365.91
2024-03-31T01:46:23.642Z,100364.61
2024-03-31T01:48:51.832Z,100362.35
2024-03-31T01:51:19.940Z,100361.21
2024-03-31T01:53:47.768Z,100366.86
2024-03-31T01:56:15.759Z,100368.48
2024-03-31T01:58:44.620Z,100366.69
2024-03-31T02:01:12.704Z,100366.09
2024-03-31T02:03:41.148Z,100370.52
2024-03-31T02:06:10.208Z,100369.22
2024-03-31T02:08:38.060Z,100368.02
2024-03-31T02:11:06.237Z,100368.79
2024-03-31T02:13:34.523Z,100369.58
2024-03-31T02:16:02.449Z,100369.41
2024-03-31T02:18:30.563Z,100369.00
2024-03-31T02:20:58.554Z,100371.96
2024-03-31T02:23:26.759Z,100371.64
2024-03-31T02:25:54.542Z,100373.70
2024-03-31T02:28:23.198Z,100371.67
2024-03-31T02:30:52.677Z,100372.44
2024-03-31T02:33:22.948Z,100374.51
2024-03-31T02:35:52.737Z,100374.43
2024-03-31T02:38:22.093Z,100380.29
2024-03-31T02:40:49.977Z,100378.23
2024-03-31T02:43:17.947Z,100379.56
2024-03-31T02:45:49.159Z,100380.99
2024-03-31T02:48:17.254Z,100378.39
2024-03-31T02:50:49.089Z,100376.64
2024-03-31T02:53:17.286Z,100374.61
2024-03-31T02:55:45.419Z,100379.73
2024-03-31T02:58:13.522Z,100378.79
2024-03-31T03:00:41.408Z,100375.91
2024-03-31T03:03:10.369Z,100374.63
2024-03-31T03:05:38.506Z,100375.98
2024-03-31T03:08:09.771Z,100375.96
2024-03-31T03:10:37.655Z,100380.77
2024-03-31T03:13:05.749Z,100383.56
2024-03-31T03:15:37.680Z,100387.00
2024-03-31T03:18:06.044Z,100387.96
2024-03-31T03:20:38.502Z,100387.80
2024-03-31T03:23:06.553Z,100390.49
2024-03-31T03:25:34.715Z,100394.55
2024-03-31T03:28:03.281Z,100398.02
2024-03-31T03:30:31.706Z,100396.86
2024-03-31T03:32:59.757Z,100400.90
2024-03-31T03:35:27.842Z,100399.27
2024-03-31T03:37:56.851Z,100399.85
2024-03-31T03:40:25.139Z,100409.92
2024-03-31T03:42:53.147Z,100418.58
2024-03-31T03:45:21.088Z,100419.92
2024-03-31T03:47:49.081Z,100425.09
2024-03-31T03:50:17.087Z,100427.77
2024-03-31T03:52:45.209Z,100428.85
2024-03-31T03:55:13.277Z,100430.16
2024-03-31T03:57:41.714Z,100431.02
2024-03-31T04:00:10.563Z,100435.87
2024-03-31T04:02:49.171Z,100435.73
2024-03-31T04:05:17.346Z,100436.86
2024-03-31T04:07:48.123Z,100439.13
2024-03-31T04:10:16.809Z,100437.98
2024-03-31T04:12:45.313Z,100441.77
2024-03-31T04:15:13.450Z,100439.73
2024-03-31T04:17:41.319Z,100440.14
2024-03-31T04:20:09.485Z,100441.23
2024-03-31T04:22:37.737Z,100440.63
2024-03-31T04:25:06.091Z,100439.76
2024-03-31T04:27:34.073Z,100437.44
2024-03-31T04:30:02.743Z,100436.66
2024-03-31T04:32:31.769Z,100441.23
2024-03-31T04:34:59.893Z,100441.91
2024-03-31T04:37:28.137Z,100444.17
2024-03-31T04:39:56.184Z,100447.41
2024-03-31T04:42:24.152Z,100448.15
2024-03-31T04:44:52.924Z,100445.52
2024-03-31T04:47:22.678Z,100447.90
2024-03-31T04:49:50.712Z,100446.08
2024-03-31T04:52:18.614Z,100447.46
2024-03-31T04:54:46.825Z,100447.67
2024-03-31T04:57:14.940Z,100447.62
2024-03-31T04:59:43.248Z,100449.70
2024-03-31T05:02:11.316Z,100449.65
2024-03-31T05:04:40.172Z,100452.95
2024-03-31T05:07:08.424Z,100456.09
2024-03-31T05:09:36.348Z,100456.80
2024-03-31T05:12:04.642Z,100458.21
2024-03-31T05:14:32.941Z,100462.14
2024-03-31T05:17:01.319Z,100461.30
2024-03-31T05:19:29.277Z,100461.80
2024-03-31T05:21:57.683Z,100460.02
2024-03-31T05:24:25.703Z,100462.98
2024-03-31T05:26:54.081Z,100460.39
2024-03-31T05:29:22.079Z,100459.90
2024-03-31T05:31:50.637Z,100458.42
2024-03-31T05:34:26.190Z,100461.05
2024-03-31T05:36:54.830Z,100462.15
2024-03-31T05:39:23.543Z,100464.27
2024-03-31T05:41:51.573Z,100470.39
2024-03-31T05:44:20.923Z,100475.65
2024-03-31T05:46:49.026Z,100479.89
2024-03-31T05:49:17.350Z,100478.79
2024-03-31T05:51:45.619Z,100476.86
2024-03-31T05:54:13.815Z,100477.20
2024-03-31T05:56:41.892Z,100479.34
2024-03-31T05:59:09.892Z,100481.81
2024-03-31T06:01:39.143Z,100487.72
2024-03-31T06:04:10.078Z,100490.25
2024-03-31T06:06:38.270Z,100486.09
2024-03-31T06:09:06.400Z,100488.36
2024-03-31T06:11:34.599Z,100489.73
2024-03-31T06:14:02.453Z,100488.52
2024-03-31T06:16:30.568Z,100492.55
2024-03-31T06:18:58.755Z,100496.36
2024-03-31T06:21:26.853Z,100497.81
2024-03-31T06:23:54.916Z,100500.82
2024-03-31T06:26:23.030Z,100507.52
2024-03-31T06:28:51.113Z,100509.02
2024-03-31T06:31:19.271Z,100516.27
2024-03-31T06:33:49.660Z,100513.77
2024-03-31T06:36:17.817Z,100513.71
2024-03-31T06:38:46.119Z,100510.02
2024-03-31T06:41:14.130Z,100512.58
2024-03-31T06:43:42.101Z,100513.56
2024-03-31T06:46:10.120Z,100514.26
2024-03-31T06:48:39.851Z,100512.52
2024-03-31T06:51:07.894Z,100515.05
2024-03-31T06:53:36.169Z,100512.44
2024-03-31T06:56:04.700Z,100508.59
2024-03-31T06:58:32.918Z,100512.34
2024-03-31T07:01:01.474Z,100511.33
2024-03-31T07:03:31.661Z,100514.70
2024-03-31T07:05:59.783Z,100525.85
2024-03-31T07:08:28.095Z,100527.70
2024-03-31T07:10:56.203Z,100525.95
2024-03-31T07:13:24.496Z,100526.48
2024-03-31T07:15:52.554Z,100530.91
2024-03-31T07:18:20.564Z,100533.46
2024-03-31T07:20:48.573Z,100534.89
2024-03-31T07:23:16.597Z,100536.08
2024-03-31T07:25:44.881Z,100533.01
2024-03-31T07:28:26.131Z,100537.70
2024-03-31T07:30:54.974Z,100535.77
2024-03-31T07:33:23.094Z,100537.53
2024-03-31T07:35:54.097Z,100534.91
2024-03-31T07:38:22.105Z,100533.23
2024-03-31T07:40:50.021Z,100534.04
2024-03-31T07:43:30.116Z,100531.09
2024-03-31T07:45:59.523Z,100520.48
2024-03-31T07:48:27.365Z,100512.24
2024-03-31T07:50:55.715Z,100508.64
2024-03-31T07:53:23.623Z,100514.48
2024-03-31T07:56:06.896Z,100525.80
2024-03-31T07:58:34.712Z,100530.05
2024-03-31T08:01:02.638Z,100523.41
2024-03-31T08:03:30.865Z,100523.51
2024-03-31T08:05:59.743Z,100522.42
2024-03-31T08:08:27.625Z,100520.04
2024-03-31T08:10:55.629Z,100519.42
2024-03-31T08:13:24.055Z,100512.31
2024-03-31T08:15:52.254Z,100509.27
2024-03-31T08:18:21.188Z,100506.05
2024-03-31T08:20:49.629Z,100502.71
2024-03-31T08:23:31.008Z,100497.79
2024-03-31T08:25:59.120Z,100494.92
2024-03-31T08:28:26.957Z,100494.89
2024-03-31T08:30:54.910Z,100494.37
2024-03-31T08:33:22.741Z,100499.05
2024-03-31T08:35:52.182Z,100497.12
2024-03-31T08:38:20.802Z,100491.59
2024-03-31T08:40:56.425Z,100492.77
2024-03-31T08:43:28.289Z,100490.89
2024-03-31T08:45:57.840Z,100487.69
2024-03-31T08:48:28.614Z,100485.77
2024-03-31T08:50:57.549Z,100479.40
2024-03-31T08:53:27.532Z,100480.35
2024-03-31T08:55:55.622Z,100478.86
2024-03-31T08:58:26.156Z,100478.58
2024-03-31T09:00:57.812Z,100476.01
2024-03-31T09:03:26.017Z,100472.94
2024-03-31T09:05:53.997Z,100472.40
2024-03-31T09:08:35.415Z,100471.89
2024-03-31T09:11:09.484Z,100471.66
2024-03-31T09:13:37.456Z,100472.08
2024-03-31T09:16:06.579Z,100475.17
2024-03-31T09:18:34.663Z,100474.16
2024-03-31T09:21:02.883Z,100472.58
2024-03-31T09:23:30.893Z,100466.02
2024-03-31T09:26:01.158Z,100464.73
2024-03-31T09:28:30.604Z,100465.45
2024-03-31T09:30:58.777Z,100462.95
2024-03-31T09:33:26.508Z,100466.02
2024-03-31T09:35:54.751Z,100460.03
2024-03-31T09:38:22.818Z,100456.88
2024-03-31T09:40:50.989Z,100454.92
2024-03-31T09:43:20.287Z,100453.06
2024-03-31T09:45:48.339Z,100450.65
2024-03-31T09:48:22.958Z,100446.59
2024-03-31T09:51:04.688Z,100439.60
2024-03-31T09:53:36.914Z,100444.66
2024-03-31T09:56:08.331Z,100449.86
2024-03-31T09:58:38.201Z,100450.46
2024-03-31T10:01:10.588Z,100440.70
2024-03-31T10:03:43.718Z,100439.98
2024-03-31T10:06:13.630Z,100441.17
2024-03-31T10:08:42.919Z,100433.98
2024-03-31T10:11:11.790Z,100435.04
2024-03-31T10:13:41.654Z,100428.13
2024-03-31T10:16:10.140Z,100426.20
2024-03-31T10:18:38.661Z,100429.31
2024-03-31T10:21:07.890Z,100425.63
2024-03-31T10:23:36.326Z,100427.83
2024-03-31T10:26:07.222Z,100429.52
2024-03-31T10:28:36.165Z,100434.95
2024-03-31T10:31:04.603Z,100430.82
2024-03-31T10:33:40.807Z,100426.97
2024-03-31T10:36:13.139Z,100426.55
2024-03-31T10:38:45.189Z,100423.93
2024-03-31T10:41:14.111Z,100421.23
2024-03-31T10:43:42.987Z,100421.05
2024-03-31T10:46:11.124Z,100425.41
2024-03-31T10:48:39.160Z,100424.26
2024-03-31T10:51:14.463Z,100425.97
2024-03-31T10:53:42.696Z,100429.39
2024-03-31T10:56:10.655Z,100424.47
2024-03-31T10:58:40.859Z,100428.58
2024-03-31T11:01:17.514Z,100431.63
2024-03-31T11:03:47.542Z,100424.71
2024-03-31T11:06:18.287Z,100424.52
2024-03-31T11:08:48.804Z,100421.59
2024-03-31T11:11:20.454Z,100416.95
2024-03-31T11:13:48.491Z,100414.08
2024-03-31T11:16:20.638Z,100410.12
2024-03-31T11:18:53.125Z,100407.54
2024-03-31T11:21:21.538Z,100404.23
2024-03-31T11:23:52.288Z,100394.07
2024-03-31T11:26:20.770Z,100387.51
2024-03-31T11:28:50.128Z,100380.84
2024-03-31T11:31:23.106Z,100377.56
2024-03-31T11:33:52.065Z,100375.44
2024-03-31T11:36:21.972Z,100374.41
2024-03-31T11:38:49.974Z,100366.96
2024-03-31T11:41:18.483Z,100361.38
2024-03-31T11:43:47.986Z,100363.44
2024-03-31T11:46:19.325Z,100359.05
2024-03-31T11:48:47.232Z,100362.52
2024-03-31T11:51:15.485Z,100363.39
2024-03-31T11:53:44.233Z,100364.13
2024-03-31T11:56:12.353Z,100363.20
2024-03-31T11:58:40.186Z,100363.88
2024-03-31T12:01:09.106Z,100366.46
2024-03-31T12:03:37.219Z,100363.52
2024-03-31T12:06:05.393Z,100364.44
2024-03-31T12:08:43.122Z,100361.60
2024-03-31T12:11:15.757Z,100355.90
2024-03-31T12:13:44.132Z,100356.19
2024-03-31T12:16:12.179Z,100352.07
2024-03-31T12:18:40.224Z,100349.56
2024-03-31T12:21:08.212Z,100347.66
2024-03-31T12:23:37.431Z,100342.20
2024-03-31T12:26:05.842Z,100344.27
2024-03-31T12:28:33.980Z,100344.27
2024-03-31T12:31:02.154Z,100348.66
2024-03-31T12:33:30.213Z,100352.59
2024-03-31T12:36:03.752Z,100347.77
2024-03-31T12:38:33.646Z,100348.50
2024-03-31T12:41:02.257Z,100346.34
2024-03-31T12:43:31.180Z,100344.45
2024-03-31T12:45:59.315Z,100338.66
2024-03-31T12:48:27.859Z,100335.88
2024-03-31T12:50:56.472Z,100329.38
2024-03-31T12:53:27.836Z,100328.00
2024-03-31T12:55:56.222Z,100323.20
2024-03-31T12:58:24.342Z,100317.64
2024-03-31T13:00:54.575Z,100318.94
2024-03-31T13:03:22.828Z,100314.77
2024-03-31T13:05:51.583Z,100315.23
2024-03-31T13:08:23.927Z,100311.60
2024-03-31T13:10:52.594Z,100310.67
2024-03-31T13:13:23.215Z,100303.77
2024-03-31T13:15:51.167Z,100300.29
2024-03-31T13:18:21.596Z,100295.18
2024-03-31T13:20:49.975Z,100289.91
2024-03-31T13:23:19.884Z,100282.67
2024-03-31T13:25:48.104Z,100283.34
2024-03-31T13:28:16.054Z,100290.71
2024-03-31T13:30:44.161Z,100296.08
2024-03-31T13:33:12.387Z,100294.77
2024-03-31T13:35:40.643Z,100287.38
2024-03-31T13:38:08.470Z,100287.48
2024-03-31T13:40:36.682Z,100284.09
2024-03-31T13:43:04.818Z,100284.88
2024-03-31T13:45:32.718Z,100279.30
2024-03-31T13:48:00.716Z,100276.31
2024-03-31T13:50:29.234Z,100272.48
2024-03-31T13:52:57.561Z,100268.48
2024-03-31T13:55:25.577Z,100266.91
2024-03-31T13:57:53.486Z,100265.41
2024-03-31T14:00:21.485Z,100265.88
2024-03-31T14:02:49.770Z,100267.72
2024-03-31T14:05:18.221Z,100271.52
2024-03-31T14:07:46.736Z,100270.55
2024-03-31T14:10:14.691Z,100265.69
2024-03-31T14:12:44.113Z,100273.77
2024-03-31T14:15:12.135Z,100276.66
2024-03-31T14:17:40.183Z,100280.77
2024-03-31T14:20:09.377Z,100276.76
2024-03-31T14:22:40.316Z,100275.08
2024-03-31T14:25:08.507Z,100272.17
2024-03-31T14:27:36.359Z,100269.56
2024-03-31T14:30:05.028Z,100268.63
2024-03-31T14:32:32.804Z,100272.00
2024-03-31T14:35:00.729Z,100270.75
2024-03-31T14:37:28.836Z,100268.64
2024-03-31T14:39:56.926Z,100269.14
2024-03-31T14:42:25.011Z,100267.54
2024-03-31T14:44:53.013Z,100273.92
2024-03-31T14:47:20.994Z,100269.95
2024-03-31T14:49:48.972Z,100267.84
2024-03-31T14:52:16.892Z,100266.53
2024-03-31T14:54:44.944Z,100263.08
2024-03-31T14:57:13.205Z,100264.95
2024-03-31T14:59:41.082Z,100260.83
2024-03-31T15:02:10.334Z,100256.23
2024-03-31T15:04:38.291Z,100252.02
2024-03-31T15:07:06.256Z,100252.23
2024-03-31T15:09:34.381Z,100245.67
2024-03-31T15:12:03.818Z,100250.24
2024-03-31T15:14:31.780Z,100250.87
2024-03-31T15:16:59.933Z,100247.27
2024-03-31T15:19:27.840Z,100242.08
2024-03-31T15:21:56.132Z,100233.95
2024-03-31T15:24:24.025Z,100234.98
2024-03-31T15:26:51.886Z,100242.36
2024-03-31T15:29:20.066Z,100242.48
2024-03-31T15:31:48.938Z,100246.53
2024-03-31T15:34:17.222Z,100245.65
2024-03-31T15:36:44.981Z,100239.64
2024-03-31T15:39:13.027Z,100244.74
2024-03-31T15:41:41.141Z,100244.84
2024-03-31T15:44:09.091Z,100242.23
2024-03-31T15:46:37.367Z,100237.15
2024-03-31T15:49:05.722Z,100226.70
2024-03-31T15:51:33.686Z,100223.34
2024-03-31T15:54:03.012Z,100226.89
2024-03-31T15:56:35.045Z,100231.32
2024-03-31T15:59:07.549Z,100228.45
2024-03-31T16:01:35.512Z,100231.64
2024-03-31T16:04:03.483Z,100238.45
2024-03-31T16:06:32.202Z,100242.31
2024-03-31T16:09:01.048Z,100243.41
2024-03-31T16:11:28.873Z,100244.41
2024-03-31T16:13:56.781Z,100237.35
2024-03-31T16:16:24.820Z,100242.77
2024-03-31T16:18:52.840Z,100240.84
2024-03-31T16:21:21.027Z,100242.45
2024-03-31T16:23:49.004Z,100247.74
2024-03-31T16:26:17.106Z,100245.11
2024-03-31T16:28:45.241Z,100238.04
2024-03-31T16:31:13.119Z,100235.63
2024-03-31T16:33:44.288Z,100231.35
2024-03-31T16:36:12.197Z,100229.17
2024-03-31T16:38:41.373Z,100229.23
2024-03-31T16:41:09.322Z,100234.42
2024-03-31T16:43:39.092Z,100243.75
2024-03-31T16:46:07.475Z,100249.99
2024-03-31T16:48:35.516Z,100253.11
2024-03-31T16:51:06.049Z,100253.55
2024-03-31T16:53:34.700Z,100252.16
2024-03-31T16:56:02.709Z,100256.15
2024-03-31T16:58:32.197Z,100258.71
2024-03-31T17:01:01.208Z,100261.71
2024-03-31T17:03:29.576Z,100269.65
2024-03-31T17:05:57.852Z,100273.94
2024-03-31T17:08:26.204Z,100278.09
2024-03-31T17:10:54.145Z,100279.10
2024-03-31T17:13:22.161Z,100278.73
2024-03-31T17:15:57.354Z,100280.73
2024-03-31T17:18:26.729Z,100281.67
2024-03-31T17:20:54.560Z,100284.70
2024-03-31T17:23:23.469Z,100291.04
2024-03-31T17:25:57.736Z,100295.15
2024-03-31T17:28:25.901Z,100295.35
2024-03-31T17:30:53.952Z,100295.73
2024-03-31T17:33:22.629Z,100298.25
2024-03-31T17:35:59.690Z,100302.73
2024-03-31T17:38:28.278Z,100303.40
2024-03-31T17:40:57.435Z,100304.90
2024-03-31T17:43:26.204Z,100308.10
2024-03-31T17:45:54.427Z,100307.55
2024-03-31T17:48:22.500Z,100310.90
2024-03-31T17:50:50.616Z,100305.60
2024-03-31T17:53:18.414Z,100310.24
2024-03-31T17:55:46.409Z,100313.70
2024-03-31T17:58:14.437Z,100315.03
2024-03-31T18:00:42.368Z,100320.16
2024-03-31T18:03:10.186Z,100320.14
2024-03-31T18:05:38.118Z,100318.67
2024-03-31T18:08:06.472Z,100318.80
2024-03-31T18:10:35.999Z,100321.15
2024-03-31T18:13:05.137Z,100319.71
2024-03-31T18:15:33.099Z,100325.69
2024-03-31T18:18:00.982Z,100320.25
2024-03-31T18:20:28.829Z,100322.35
2024-03-31T18:22:56.925Z,100325.16
2024-03-31T18:25:24.930Z,100322.50
2024-03-31T18:27:53.018Z,100317.21
2024-03-31T18:30:21.127Z,100315.27
2024-03-31T18:32:51.495Z,100315.66
2024-03-31T18:35:19.537Z,100316.83
2024-03-31T18:37:47.579Z,100316.05
2024-03-31T18:40:15.728Z,100311.42
2024-03-31T18:42:43.698Z,100311.77
2024-03-31T18:45:11.652Z,100311.66
2024-03-31T18:47:39.549Z,100309.62
2024-03-31T18:50:08.078Z,100313.57
2024-03-31T18:52:39.422Z,100314.70
2024-03-31T18:55:09.718Z,100311.38
2024-03-31T18:57:38.442Z,100314.75
2024-03-31T19:00:07.088Z,100316.90
2024-03-31T19:02:37.701Z,100316.80
2024-03-31T19:05:07.568Z,100316.49
2024-03-31T19:07:35.916Z,100314.48
2024-03-31T19:10:04.164Z,100316.48
2024-03-31T19:12:32.179Z,100314.18
2024-03-31T19:15:00.318Z,100313.95
2024-03-31T19:17:28.198Z,100313.42
2024-03-31T19:19:56.221Z,100313.60
2024-03-31T19:22:24.123Z,100317.64
2024-03-31T19:24:52.041Z,100313.38
2024-03-31T19:27:20.236Z,100314.77
2024-03-31T19:29:53.149Z,100316.39
2024-03-31T19:32:21.478Z,100313.60
2024-03-31T19:34:53.796Z,100322.19
2024-03-31T19:37:21.818Z,100321.61
2024-03-31T19:39:50.047Z,100322.45
2024-03-31T19:42:21.316Z,100326.04
2024-03-31T19:44:50.790Z,100326.38
2024-03-31T19:47:19.440Z,100325.59
2024-03-31T19:49:50.766Z,100333.52
2024-03-31T19:52:18.734Z,100342.64
2024-03-31T19:54:47.073Z,100343.04
2024-03-31T19:57:15.191Z,100337.77
2024-03-31T19:59:43.411Z,100343.00
2024-03-31T20:02:15.614Z,100339.80
2024-03-31T20:04:44.756Z,100341.45
2024-03-31T20:07:13.601Z,100348.16
2024-03-31T20:09:42.084Z,100349.36
2024-03-31T20:12:10.100Z,100349.09
2024-03-31T20:14:37.941Z,100349.88
2024-03-31T20:17:06.115Z,100347.27
2024-03-31T20:19:34.354Z,100342.83
2024-03-31T20:22:02.304Z,100338.63
2024-03-31T20:24:30.249Z,100333.89
2024-03-31T20:26:58.236Z,100331.73
2024-03-31T20:29:26.124Z,100332.36
2024-03-31T20:31:54.181Z,100337.72
2024-03-31T20:34:22.153Z,100343.48
2024-03-31T20:36:50.296Z,100342.97
2024-03-31T20:39:20.533Z,100343.86
2024-03-31T20:41:48.396Z,100346.46
2024-03-31T20:44:16.551Z,100346.89
2024-03-31T20:46:44.571Z,100343.72
2024-03-31T20:49:12.818Z,100338.66
2024-03-31T20:51:40.999Z,100345.73
2024-03-31T20:54:09.004Z,100347.92
2024-03-31T20:56:37.117Z,100349.01
2024-03-31T20:59:10.081Z,100348.09
2024-03-31T21:01:42.927Z,100351.11
2024-03-31T21:04:10.953Z,100352.09
2024-03-31T21:06:38.778Z,100350.29
2024-03-31T21:09:07.737Z,100355.36
2024-03-31T21:11:35.895Z,100349.98
2024-03-31T21:14:04.830Z,100345.55
2024-03-31T21:16:32.641Z,100346.77
2024-03-31T21:19:00.626Z,100343.26
2024-03-31T21:21:30.316Z,100353.69
2024-03-31T21:23:58.834Z,100354.63
2024-03-31T21:26:26.946Z,100361.20
2024-03-31T21:28:54.849Z,100362.98
2024-03-31T21:31:22.816Z,100362.77
2024-03-31T21:33:51.180Z,100358.23
2024-03-31T21:36:21.306Z,100359.73
2024-03-31T21:38:51.359Z,100366.08
2024-03-31T21:41:20.572Z,100362.43
2024-03-31T21:43:50.088Z,100362.02
2024-03-31T21:46:18.751Z,100363.27
2024-03-31T21:48:46.856Z,100365.17
2024-03-31T21:51:16.153Z,100364.19
2024-03-31T21:53:44.287Z,100368.58
2024-03-31T21:56:12.272Z,100368.38
2024-03-31T21:58:41.657Z,100370.23
2024-03-31T22:01:15.586Z,100366.73
2024-03-31T22:03:46.176Z,100371.16
2024-03-31T22:06:17.500Z,100369.86
2024-03-31T22:08:46.020Z,100373.33
2024-03-31T22:11:15.768Z,100373.70
2024-03-31T22:13:44.429Z,100372.44
2024-03-31T22:16:13.267Z,100371.00
2024-03-31T22:18:41.284Z,100366.83
2024-03-31T22:21:09.157Z,100366.29
2024-03-31T22:23:37.053Z,100361.93
2024-03-31T22:26:06.093Z,100360.39
2024-03-31T22:28:33.915Z,100362.64
2024-03-31T22:31:01.899Z,100363.20
2024-03-31T22:33:31.688Z,100361.90
2024-03-31T22:35:59.569Z,100355.28
2024-03-31T22:38:27.376Z,100355.29
2024-03-31T22:40:55.707Z,100354.48
2024-03-31T22:43:23.589Z,100352.29
2024-03-31T22:45:51.629Z,100353.60
2024-03-31T22:48:20.652Z,100347.74
2024-03-31T22:50:48.699Z,100350.64
2024-03-31T22:53:16.751Z,100347.84
2024-03-31T22:55:44.966Z,100351.19
2024-03-31T22:58:13.889Z,100346.98
2024-03-31T23:00:41.915Z,100342.86
2024-03-31T23:03:09.822Z,100343.19
2024-03-31T23:05:39.824Z,100344.29
2024-03-31T23:08:09.972Z,100341.52
2024-03-31T23:10:39.010Z,100342.42
2024-03-31T23:13:07.010Z,100342.45
2024-03-31T23:15:34.851Z,100340.25
2024-03-31T23:18:03.014Z,100341.42
2024-03-31T23:20:31.280Z,100346.45
2024-03-31T23:22:59.192Z,100345.16
2024-03-31T23:25:27.184Z,100340.95
2024-03-31T23:27:55.087Z,100339.95
2024-03-31T23:30:23.333Z,100341.44
2024-03-31T23:32:51.406Z,100343.34
2024-03-31T23:35:19.203Z,100344.25
2024-03-31T23:37:47.210Z,100344.48
2024-03-31T23:40:16.186Z,100345.25
2024-03-31T23:42:44.137Z,100345.96
2024-03-31T23:45:12.581Z,100344.03
2024-03-31T23:47:40.384Z,100340.01
2024-03-31T23:50:08.542Z,100333.66
2024-03-31T23:52:37.504Z,100332.39
2024-03-31T23:55:05.962Z,100330.25
2024-03-31T23:57:33.931Z,100331.56
